sensor_id;sensor_type;location;lat;lon;timestamp;P1;durP1;ratioP1;P2;durP2;ratioP2
72635;SDS011;60679;48.888;15.544;2023-03-19T00:02:08;3.95;;;1.58;;
72635;SDS011;60679;48.888;15.544;2023-03-19T00:04:33;3.00;;;1.07;;
72635;SDS011;60679;48.888;15.544;2023-03-19T00:06:59;2.50;;;0.50;;
72635;SDS011;60679;48.888;15.544;2023-03-19T00:09:24;3.33;;;1.30;;
72635;SDS011;60679;48.888;15.544;2023-03-19T00:11:51;3.35;;;1.20;;
72635;SDS011;60679;48.888;15.544;2023-03-19T00:14:17;2.75;;;0.90;;
72635;SDS011;60679;48.888;15.544;2023-03-19T00:16:42;2.80;;;0.90;;
72635;SDS011;60679;48.888;15.544;2023-03-19T00:19:08;2.42;;;0.63;;
72635;SDS011;60679;48.888;15.544;2023-03-19T00:21:34;3.00;;;0.90;;
72635;SDS011;60679;48.888;15.544;2023-03-19T00:24:00;3.00;;;1.05;;
72635;SDS011;60679;48.888;15.544;2023-03-19T00:26:33;4.38;;;0.82;;
72635;SDS011;60679;48.888;15.544;2023-03-19T00:28:59;3.07;;;1.13;;
72635;SDS011;60679;48.888;15.544;2023-03-19T00:31:26;3.05;;;1.08;;
72635;SDS011;60679;48.888;15.544;2023-03-19T00:33:53;3.85;;;0.93;;
72635;SDS011;60679;48.888;15.544;2023-03-19T00:36:21;2.75;;;0.70;;
72635;SDS011;60679;48.888;15.544;2023-03-19T00:38:47;2.95;;;0.82;;
72635;SDS011;60679;48.888;15.544;2023-03-19T00:41:13;2.53;;;0.57;;
72635;SDS011;60679;48.888;15.544;2023-03-19T00:43:39;3.85;;;1.35;;
72635;SDS011;60679;48.888;15.544;2023-03-19T00:46:05;2.73;;;0.80;;
72635;SDS011;60679;48.888;15.544;2023-03-19T00:48:30;2.90;;;0.93;;
72635;SDS011;60679;48.888;15.544;2023-03-19T00:51:01;4.00;;;1.27;;
72635;SDS011;60679;48.888;15.544;2023-03-19T00:53:36;4.57;;;1.77;;
72635;SDS011;60679;48.888;15.544;2023-03-19T00:56:03;3.00;;;0.80;;
72635;SDS011;60679;48.888;15.544;2023-03-19T00:58:29;2.53;;;0.52;;
72635;SDS011;60679;48.888;15.544;2023-03-19T01:00:55;3.67;;;1.27;;
72635;SDS011;60679;48.888;15.544;2023-03-19T01:03:20;3.17;;;1.30;;
72635;SDS011;60679;48.888;15.544;2023-03-19T01:05:47;3.10;;;1.02;;
72635;SDS011;60679;48.888;15.544;2023-03-19T01:08:13;2.70;;;0.68;;
72635;SDS011;60679;48.888;15.544;2023-03-19T01:10:39;3.93;;;1.47;;
72635;SDS011;60679;48.888;15.544;2023-03-19T01:13:05;3.80;;;1.73;;
72635;SDS011;60679;48.888;15.544;2023-03-19T01:15:33;3.10;;;1.27;;
72635;SDS011;60679;48.888;15.544;2023-03-19T01:18:00;4.38;;;1.45;;
72635;SDS011;60679;48.888;15.544;2023-03-19T01:20:25;6.57;;;2.03;;
72635;SDS011;60679;48.888;15.544;2023-03-19T01:22:51;3.90;;;0.80;;
72635;SDS011;60679;48.888;15.544;2023-03-19T01:25:16;2.55;;;0.50;;
72635;SDS011;60679;48.888;15.544;2023-03-19T01:27:42;3.08;;;1.38;;
72635;SDS011;60679;48.888;15.544;2023-03-19T01:30:07;3.27;;;0.80;;
72635;SDS011;60679;48.888;15.544;2023-03-19T01:32:34;6.00;;;2.15;;
72635;SDS011;60679;48.888;15.544;2023-03-19T01:34:59;3.50;;;0.97;;
72635;SDS011;60679;48.888;15.544;2023-03-19T01:37:25;2.78;;;0.82;;
72635;SDS011;60679;48.888;15.544;2023-03-19T01:39:50;6.15;;;1.50;;
72635;SDS011;60679;48.888;15.544;2023-03-19T01:42:16;3.43;;;1.33;;
72635;SDS011;60679;48.888;15.544;2023-03-19T01:44:41;3.17;;;1.47;;
72635;SDS011;60679;48.888;15.544;2023-03-19T01:47:51;3.95;;;1.90;;
72635;SDS011;60679;48.888;15.544;2023-03-19T01:50:02;7.35;;;2.47;;
72635;SDS011;60679;48.888;15.544;2023-03-19T01:52:30;3.17;;;1.20;;
72635;SDS011;60679;48.888;15.544;2023-03-19T01:54:59;2.88;;;0.85;;
72635;SDS011;60679;48.888;15.544;2023-03-19T01:57:27;3.03;;;1.60;;
72635;SDS011;60679;48.888;15.544;2023-03-19T01:59:54;3.42;;;0.95;;
72635;SDS011;60679;48.888;15.544;2023-03-19T02:02:30;3.05;;;1.23;;
72635;SDS011;60679;48.888;15.544;2023-03-19T02:05:11;4.82;;;1.60;;
72635;SDS011;60679;48.888;15.544;2023-03-19T02:07:40;3.53;;;0.80;;
72635;SDS011;60679;48.888;15.544;2023-03-19T02:10:10;5.20;;;1.45;;
72635;SDS011;60679;48.888;15.544;2023-03-19T02:12:37;2.72;;;0.70;;
72635;SDS011;60679;48.888;15.544;2023-03-19T02:15:03;2.37;;;0.60;;
72635;SDS011;60679;48.888;15.544;2023-03-19T02:17:29;6.15;;;1.70;;
72635;SDS011;60679;48.888;15.544;2023-03-19T02:22:26;4.10;;;1.63;;
72635;SDS011;60679;48.888;15.544;2023-03-19T02:24:55;2.90;;;0.63;;
72635;SDS011;60679;48.888;15.544;2023-03-19T02:27:31;2.60;;;0.63;;
72635;SDS011;60679;48.888;15.544;2023-03-19T02:29:56;3.10;;;1.15;;
72635;SDS011;60679;48.888;15.544;2023-03-19T02:32:22;4.97;;;1.87;;
72635;SDS011;60679;48.888;15.544;2023-03-19T02:34:47;2.43;;;0.50;;
72635;SDS011;60679;48.888;15.544;2023-03-19T02:37:21;5.15;;;1.42;;
72635;SDS011;60679;48.888;15.544;2023-03-19T02:39:58;3.13;;;1.20;;
72635;SDS011;60679;48.888;15.544;2023-03-19T02:42:29;11.60;;;0.90;;
72635;SDS011;60679;48.888;15.544;2023-03-19T02:44:56;2.83;;;1.00;;
72635;SDS011;60679;48.888;15.544;2023-03-19T02:47:22;3.42;;;1.33;;
72635;SDS011;60679;48.888;15.544;2023-03-19T02:49:48;4.88;;;1.58;;
72635;SDS011;60679;48.888;15.544;2023-03-19T02:52:14;2.63;;;0.63;;
72635;SDS011;60679;48.888;15.544;2023-03-19T02:54:40;3.10;;;0.90;;
72635;SDS011;60679;48.888;15.544;2023-03-19T02:57:05;2.80;;;0.80;;
72635;SDS011;60679;48.888;15.544;2023-03-19T02:59:31;6.80;;;1.08;;
72635;SDS011;60679;48.888;15.544;2023-03-19T03:01:56;3.08;;;1.10;;
72635;SDS011;60679;48.888;15.544;2023-03-19T03:04:25;2.70;;;0.70;;
72635;SDS011;60679;48.888;15.544;2023-03-19T03:06:50;3.10;;;1.00;;
72635;SDS011;60679;48.888;15.544;2023-03-19T03:09:16;2.80;;;0.80;;
72635;SDS011;60679;48.888;15.544;2023-03-19T03:11:42;6.10;;;1.57;;
72635;SDS011;60679;48.888;15.544;2023-03-19T03:14:08;5.95;;;1.15;;
72635;SDS011;60679;48.888;15.544;2023-03-19T03:16:33;2.87;;;0.97;;
72635;SDS011;60679;48.888;15.544;2023-03-19T03:18:59;2.67;;;0.70;;
72635;SDS011;60679;48.888;15.544;2023-03-19T03:21:26;2.85;;;0.90;;
72635;SDS011;60679;48.888;15.544;2023-03-19T03:23:51;2.70;;;0.75;;
72635;SDS011;60679;48.888;15.544;2023-03-19T03:26:17;2.87;;;1.00;;
72635;SDS011;60679;48.888;15.544;2023-03-19T03:28:43;2.33;;;0.40;;
72635;SDS011;60679;48.888;15.544;2023-03-19T03:31:08;2.63;;;0.57;;
72635;SDS011;60679;48.888;15.544;2023-03-19T03:33:34;3.10;;;1.13;;
72635;SDS011;60679;48.888;15.544;2023-03-19T03:36:00;2.70;;;0.82;;
72635;SDS011;60679;48.888;15.544;2023-03-19T03:38:26;3.45;;;1.63;;
72635;SDS011;60679;48.888;15.544;2023-03-19T03:40:52;3.72;;;1.42;;
72635;SDS011;60679;48.888;15.544;2023-03-19T03:43:18;5.50;;;1.70;;
72635;SDS011;60679;48.888;15.544;2023-03-19T03:45:45;2.58;;;0.63;;
72635;SDS011;60679;48.888;15.544;2023-03-19T03:48:12;2.97;;;0.93;;
72635;SDS011;60679;48.888;15.544;2023-03-19T03:50:37;2.92;;;0.82;;
72635;SDS011;60679;48.888;15.544;2023-03-19T03:53:03;5.68;;;1.90;;
72635;SDS011;60679;48.888;15.544;2023-03-19T03:55:29;2.60;;;0.70;;
72635;SDS011;60679;48.888;15.544;2023-03-19T03:57:54;2.45;;;0.50;;
72635;SDS011;60679;48.888;15.544;2023-03-19T04:00:20;3.08;;;1.08;;
72635;SDS011;60679;48.888;15.544;2023-03-19T04:02:45;2.70;;;0.57;;
72635;SDS011;60679;48.888;15.544;2023-03-19T04:05:11;2.85;;;0.88;;
72635;SDS011;60679;48.888;15.544;2023-03-19T04:07:37;2.55;;;0.60;;
72635;SDS011;60679;48.888;15.544;2023-03-19T04:10:03;3.20;;;1.23;;
72635;SDS011;60679;48.888;15.544;2023-03-19T04:12:29;2.60;;;0.70;;
72635;SDS011;60679;48.888;15.544;2023-03-19T04:14:55;4.05;;;1.38;;
72635;SDS011;60679;48.888;15.544;2023-03-19T04:17:22;5.20;;;2.03;;
72635;SDS011;60679;48.888;15.544;2023-03-19T04:19:47;3.97;;;1.33;;
72635;SDS011;60679;48.888;15.544;2023-03-19T04:22:13;3.10;;;1.10;;
72635;SDS011;60679;48.888;15.544;2023-03-19T04:24:40;2.72;;;0.73;;
72635;SDS011;60679;48.888;15.544;2023-03-19T04:27:07;5.00;;;1.73;;
72635;SDS011;60679;48.888;15.544;2023-03-19T04:29:32;3.90;;;1.23;;
72635;SDS011;60679;48.888;15.544;2023-03-19T04:31:58;5.83;;;1.73;;
72635;SDS011;60679;48.888;15.544;2023-03-19T04:34:23;3.40;;;1.02;;
72635;SDS011;60679;48.888;15.544;2023-03-19T04:36:49;3.67;;;1.17;;
72635;SDS011;60679;48.888;15.544;2023-03-19T04:39:16;4.43;;;1.17;;
72635;SDS011;60679;48.888;15.544;2023-03-19T04:41:42;3.83;;;1.50;;
72635;SDS011;60679;48.888;15.544;2023-03-19T04:44:08;2.92;;;1.08;;
72635;SDS011;60679;48.888;15.544;2023-03-19T04:46:33;4.05;;;1.95;;
72635;SDS011;60679;48.888;15.544;2023-03-19T04:48:59;3.47;;;1.23;;
72635;SDS011;60679;48.888;15.544;2023-03-19T04:51:24;2.77;;;0.80;;
72635;SDS011;60679;48.888;15.544;2023-03-19T04:53:50;2.25;;;0.43;;
72635;SDS011;60679;48.888;15.544;2023-03-19T04:56:15;4.20;;;1.73;;
72635;SDS011;60679;48.888;15.544;2023-03-19T04:58:42;2.70;;;0.73;;
72635;SDS011;60679;48.888;15.544;2023-03-19T05:01:08;2.67;;;0.75;;
72635;SDS011;60679;48.888;15.544;2023-03-19T05:03:33;4.20;;;1.27;;
72635;SDS011;60679;48.888;15.544;2023-03-19T05:05:59;4.00;;;1.37;;
72635;SDS011;60679;48.888;15.544;2023-03-19T05:08:24;4.70;;;1.50;;
72635;SDS011;60679;48.888;15.544;2023-03-19T05:10:50;3.60;;;1.60;;
72635;SDS011;60679;48.888;15.544;2023-03-19T05:13:15;5.23;;;2.13;;
72635;SDS011;60679;48.888;15.544;2023-03-19T05:15:41;2.30;;;0.52;;
72635;SDS011;60679;48.888;15.544;2023-03-19T05:18:08;3.10;;;1.10;;
72635;SDS011;60679;48.888;15.544;2023-03-19T05:20:33;2.67;;;0.88;;
72635;SDS011;60679;48.888;15.544;2023-03-19T05:22:59;3.50;;;1.17;;
72635;SDS011;60679;48.888;15.544;2023-03-19T05:25:26;5.15;;;2.15;;
72635;SDS011;60679;48.888;15.544;2023-03-19T05:27:51;3.92;;;1.65;;
72635;SDS011;60679;48.888;15.544;2023-03-19T05:30:17;3.93;;;1.90;;
72635;SDS011;60679;48.888;15.544;2023-03-19T05:32:43;5.07;;;2.17;;
72635;SDS011;60679;48.888;15.544;2023-03-19T05:35:11;3.40;;;1.20;;
72635;SDS011;60679;48.888;15.544;2023-03-19T05:37:37;4.05;;;1.70;;
72635;SDS011;60679;48.888;15.544;2023-03-19T05:40:03;3.28;;;1.20;;
72635;SDS011;60679;48.888;15.544;2023-03-19T05:42:29;3.95;;;1.80;;
72635;SDS011;60679;48.888;15.544;2023-03-19T05:44:55;6.43;;;1.10;;
72635;SDS011;60679;48.888;15.544;2023-03-19T05:47:20;2.80;;;0.93;;
72635;SDS011;60679;48.888;15.544;2023-03-19T05:49:46;4.00;;;1.67;;
72635;SDS011;60679;48.888;15.544;2023-03-19T05:52:12;8.98;;;1.35;;
72635;SDS011;60679;48.888;15.544;2023-03-19T05:54:37;3.33;;;1.37;;
72635;SDS011;60679;48.888;15.544;2023-03-19T05:57:03;4.50;;;1.87;;
72635;SDS011;60679;48.888;15.544;2023-03-19T05:59:28;3.17;;;1.10;;
72635;SDS011;60679;48.888;15.544;2023-03-19T06:01:54;2.92;;;0.90;;
72635;SDS011;60679;48.888;15.544;2023-03-19T06:04:20;2.50;;;0.60;;
72635;SDS011;60679;48.888;15.544;2023-03-19T06:06:45;2.80;;;0.70;;
72635;SDS011;60679;48.888;15.544;2023-03-19T06:09:11;3.13;;;1.20;;
72635;SDS011;60679;48.888;15.544;2023-03-19T06:11:37;2.85;;;0.88;;
72635;SDS011;60679;48.888;15.544;2023-03-19T06:14:04;3.03;;;1.08;;
72635;SDS011;60679;48.888;15.544;2023-03-19T06:16:30;3.33;;;0.95;;
72635;SDS011;60679;48.888;15.544;2023-03-19T06:18:56;3.67;;;1.55;;
72635;SDS011;60679;48.888;15.544;2023-03-19T06:21:22;9.27;;;4.30;;
72635;SDS011;60679;48.888;15.544;2023-03-19T06:23:49;2.88;;;0.85;;
72635;SDS011;60679;48.888;15.544;2023-03-19T06:26:15;6.53;;;1.80;;
72635;SDS011;60679;48.888;15.544;2023-03-19T06:28:41;3.15;;;1.00;;
72635;SDS011;60679;48.888;15.544;2023-03-19T06:31:06;4.57;;;1.50;;
72635;SDS011;60679;48.888;15.544;2023-03-19T06:33:32;4.45;;;1.35;;
72635;SDS011;60679;48.888;15.544;2023-03-19T06:35:57;2.70;;;0.82;;
72635;SDS011;60679;48.888;15.544;2023-03-19T06:38:23;3.10;;;0.80;;
72635;SDS011;60679;48.888;15.544;2023-03-19T06:40:49;3.10;;;1.00;;
72635;SDS011;60679;48.888;15.544;2023-03-19T06:43:18;3.63;;;0.80;;
72635;SDS011;60679;48.888;15.544;2023-03-19T06:45:43;3.05;;;0.75;;
72635;SDS011;60679;48.888;15.544;2023-03-19T06:48:09;3.58;;;1.45;;
72635;SDS011;60679;48.888;15.544;2023-03-19T06:50:34;3.15;;;1.02;;
72635;SDS011;60679;48.888;15.544;2023-03-19T06:53:00;2.90;;;0.77;;
72635;SDS011;60679;48.888;15.544;2023-03-19T06:55:26;3.03;;;0.95;;
72635;SDS011;60679;48.888;15.544;2023-03-19T06:57:52;2.93;;;0.63;;
72635;SDS011;60679;48.888;15.544;2023-03-19T07:00:17;3.67;;;0.90;;
72635;SDS011;60679;48.888;15.544;2023-03-19T07:02:43;3.43;;;1.17;;
72635;SDS011;60679;48.888;15.544;2023-03-19T07:05:09;3.80;;;1.48;;
72635;SDS011;60679;48.888;15.544;2023-03-19T07:07:35;3.53;;;1.13;;
72635;SDS011;60679;48.888;15.544;2023-03-19T07:10:01;3.50;;;1.37;;
72635;SDS011;60679;48.888;15.544;2023-03-19T07:12:26;2.63;;;0.60;;
72635;SDS011;60679;48.888;15.544;2023-03-19T07:14:53;3.63;;;0.73;;
72635;SDS011;60679;48.888;15.544;2023-03-19T07:17:20;3.42;;;1.05;;
72635;SDS011;60679;48.888;15.544;2023-03-19T07:19:47;2.88;;;0.85;;
72635;SDS011;60679;48.888;15.544;2023-03-19T07:22:13;2.40;;;0.50;;
72635;SDS011;60679;48.888;15.544;2023-03-19T07:24:39;3.55;;;1.25;;
72635;SDS011;60679;48.888;15.544;2023-03-19T07:27:07;4.40;;;1.53;;
72635;SDS011;60679;48.888;15.544;2023-03-19T07:29:33;3.08;;;0.60;;
72635;SDS011;60679;48.888;15.544;2023-03-19T07:31:59;4.10;;;1.63;;
72635;SDS011;60679;48.888;15.544;2023-03-19T07:34:24;5.40;;;1.50;;
72635;SDS011;60679;48.888;15.544;2023-03-19T07:36:50;3.10;;;0.80;;
72635;SDS011;60679;48.888;15.544;2023-03-19T07:39:17;3.10;;;0.70;;
72635;SDS011;60679;48.888;15.544;2023-03-19T07:41:43;3.40;;;0.80;;
72635;SDS011;60679;48.888;15.544;2023-03-19T07:44:11;3.78;;;1.13;;
72635;SDS011;60679;48.888;15.544;2023-03-19T07:46:37;4.93;;;1.93;;
72635;SDS011;60679;48.888;15.544;2023-03-19T07:49:02;4.03;;;1.73;;
72635;SDS011;60679;48.888;15.544;2023-03-19T07:51:29;4.78;;;2.92;;
72635;SDS011;60679;48.888;15.544;2023-03-19T07:53:55;3.90;;;1.47;;
72635;SDS011;60679;48.888;15.544;2023-03-19T07:56:20;4.05;;;1.50;;
72635;SDS011;60679;48.888;15.544;2023-03-19T07:58:46;4.00;;;1.20;;
72635;SDS011;60679;48.888;15.544;2023-03-19T08:01:11;3.77;;;1.30;;
72635;SDS011;60679;48.888;15.544;2023-03-19T08:03:37;6.65;;;2.28;;
72635;SDS011;60679;48.888;15.544;2023-03-19T08:06:06;3.20;;;0.75;;
72635;SDS011;60679;48.888;15.544;2023-03-19T08:08:41;5.60;;;1.20;;
72635;SDS011;60679;48.888;15.544;2023-03-19T08:11:24;3.80;;;1.23;;
72635;SDS011;60679;48.888;15.544;2023-03-19T08:13:54;6.75;;;1.95;;
72635;SDS011;60679;48.888;15.544;2023-03-19T08:16:20;3.47;;;1.03;;
72635;SDS011;60679;48.888;15.544;2023-03-19T08:18:46;3.40;;;0.95;;
72635;SDS011;60679;48.888;15.544;2023-03-19T08:21:11;4.43;;;1.65;;
72635;SDS011;60679;48.888;15.544;2023-03-19T08:23:38;4.07;;;1.77;;
72635;SDS011;60679;48.888;15.544;2023-03-19T08:26:03;4.05;;;1.33;;
72635;SDS011;60679;48.888;15.544;2023-03-19T08:28:32;3.40;;;0.95;;
72635;SDS011;60679;48.888;15.544;2023-03-19T08:30:57;4.95;;;2.28;;
72635;SDS011;60679;48.888;15.544;2023-03-19T08:33:30;3.40;;;1.00;;
72635;SDS011;60679;48.888;15.544;2023-03-19T08:36:02;4.47;;;2.00;;
72635;SDS011;60679;48.888;15.544;2023-03-19T08:38:30;5.30;;;2.23;;
72635;SDS011;60679;48.888;15.544;2023-03-19T08:40:55;6.00;;;2.72;;
72635;SDS011;60679;48.888;15.544;2023-03-19T08:43:26;3.70;;;1.45;;
72635;SDS011;60679;48.888;15.544;2023-03-19T08:45:51;5.87;;;1.50;;
72635;SDS011;60679;48.888;15.544;2023-03-19T08:48:17;6.28;;;1.75;;
72635;SDS011;60679;48.888;15.544;2023-03-19T08:50:42;5.20;;;1.73;;
72635;SDS011;60679;48.888;15.544;2023-03-19T08:53:08;4.90;;;1.83;;
72635;SDS011;60679;48.888;15.544;2023-03-19T08:55:34;3.70;;;1.48;;
72635;SDS011;60679;48.888;15.544;2023-03-19T08:57:59;3.80;;;1.63;;
72635;SDS011;60679;48.888;15.544;2023-03-19T09:00:25;4.93;;;2.37;;
72635;SDS011;60679;48.888;15.544;2023-03-19T09:02:51;5.53;;;2.13;;
72635;SDS011;60679;48.888;15.544;2023-03-19T09:05:17;5.97;;;3.03;;
72635;SDS011;60679;48.888;15.544;2023-03-19T09:07:46;4.13;;;1.90;;
72635;SDS011;60679;48.888;15.544;2023-03-19T09:10:12;4.57;;;1.83;;
72635;SDS011;60679;48.888;15.544;2023-03-19T09:12:38;4.45;;;1.95;;
72635;SDS011;60679;48.888;15.544;2023-03-19T09:15:04;4.20;;;2.23;;
72635;SDS011;60679;48.888;15.544;2023-03-19T09:17:30;6.28;;;3.67;;
72635;SDS011;60679;48.888;15.544;2023-03-19T09:19:56;10.00;;;2.67;;
72635;SDS011;60679;48.888;15.544;2023-03-19T09:22:21;7.10;;;2.50;;
72635;SDS011;60679;48.888;15.544;2023-03-19T09:24:47;4.53;;;2.33;;
72635;SDS011;60679;48.888;15.544;2023-03-19T09:27:12;12.83;;;2.13;;
72635;SDS011;60679;48.888;15.544;2023-03-19T09:29:38;4.30;;;1.80;;
72635;SDS011;60679;48.888;15.544;2023-03-19T09:32:03;4.10;;;2.10;;
72635;SDS011;60679;48.888;15.544;2023-03-19T09:34:30;4.57;;;1.87;;
72635;SDS011;60679;48.888;15.544;2023-03-19T09:36:55;3.63;;;1.48;;
72635;SDS011;60679;48.888;15.544;2023-03-19T09:39:21;4.73;;;1.83;;
72635;SDS011;60679;48.888;15.544;2023-03-19T09:41:59;4.33;;;1.80;;
72635;SDS011;60679;48.888;15.544;2023-03-19T09:44:35;3.83;;;1.70;;
72635;SDS011;60679;48.888;15.544;2023-03-19T09:49:48;5.72;;;2.72;;
72635;SDS011;60679;48.888;15.544;2023-03-19T09:52:26;4.77;;;2.07;;
72635;SDS011;60679;48.888;15.544;2023-03-19T09:54:59;4.78;;;1.92;;
72635;SDS011;60679;48.888;15.544;2023-03-19T09:57:38;6.07;;;2.92;;
72635;SDS011;60679;48.888;15.544;2023-03-19T10:00:23;7.63;;;3.28;;
72635;SDS011;60679;48.888;15.544;2023-03-19T10:02:56;4.50;;;2.17;;
72635;SDS011;60679;48.888;15.544;2023-03-19T10:08:33;6.32;;;3.25;;
72635;SDS011;60679;48.888;15.544;2023-03-19T10:16:31;5.83;;;2.23;;
72635;SDS011;60679;48.888;15.544;2023-03-19T10:19:02;6.55;;;2.75;;
72635;SDS011;60679;48.888;15.544;2023-03-19T10:21:38;6.68;;;2.90;;
72635;SDS011;60679;48.888;15.544;2023-03-19T10:24:12;6.05;;;2.78;;
72635;SDS011;60679;48.888;15.544;2023-03-19T10:26:43;5.35;;;2.80;;
72635;SDS011;60679;48.888;15.544;2023-03-19T10:29:10;6.20;;;2.47;;
72635;SDS011;60679;48.888;15.544;2023-03-19T10:32:04;4.68;;;2.40;;
72635;SDS011;60679;48.888;15.544;2023-03-19T10:34:45;5.88;;;3.45;;
72635;SDS011;60679;48.888;15.544;2023-03-19T10:37:19;4.60;;;2.47;;
72635;SDS011;60679;48.888;15.544;2023-03-19T10:39:47;5.63;;;2.47;;
72635;SDS011;60679;48.888;15.544;2023-03-19T10:42:34;5.17;;;2.53;;
72635;SDS011;60679;48.888;15.544;2023-03-19T10:45:20;4.47;;;2.45;;
72635;SDS011;60679;48.888;15.544;2023-03-19T10:47:51;7.35;;;3.33;;
72635;SDS011;60679;48.888;15.544;2023-03-19T10:50:18;5.75;;;2.40;;
72635;SDS011;60679;48.888;15.544;2023-03-19T10:52:50;5.78;;;3.42;;
72635;SDS011;60679;48.888;15.544;2023-03-19T10:55:18;5.97;;;3.30;;
72635;SDS011;60679;48.888;15.544;2023-03-19T10:57:49;5.43;;;2.50;;
72635;SDS011;60679;48.888;15.544;2023-03-19T11:00:24;4.15;;;1.75;;
72635;SDS011;60679;48.888;15.544;2023-03-19T11:02:53;5.40;;;2.13;;
72635;SDS011;60679;48.888;15.544;2023-03-19T11:07:47;6.30;;;2.70;;
72635;SDS011;60679;48.888;15.544;2023-03-19T11:10:21;6.30;;;2.33;;
72635;SDS011;60679;48.888;15.544;2023-03-19T11:12:55;6.97;;;3.73;;
72635;SDS011;60679;48.888;15.544;2023-03-19T11:15:25;5.80;;;2.33;;
72635;SDS011;60679;48.888;15.544;2023-03-19T11:17:57;7.20;;;3.67;;
72635;SDS011;60679;48.888;15.544;2023-03-19T11:22:56;5.50;;;2.78;;
72635;SDS011;60679;48.888;15.544;2023-03-19T11:25:29;6.40;;;2.70;;
72635;SDS011;60679;48.888;15.544;2023-03-19T11:30:25;6.53;;;2.92;;
72635;SDS011;60679;48.888;15.544;2023-03-19T11:35:47;7.53;;;3.60;;
72635;SDS011;60679;48.888;15.544;2023-03-19T11:38:24;6.10;;;2.93;;
72635;SDS011;60679;48.888;15.544;2023-03-19T11:43:58;5.45;;;2.78;;
72635;SDS011;60679;48.888;15.544;2023-03-19T11:51:45;5.20;;;2.20;;
72635;SDS011;60679;48.888;15.544;2023-03-19T11:54:21;5.78;;;3.03;;
72635;SDS011;60679;48.888;15.544;2023-03-19T11:57:08;7.07;;;3.00;;
72635;SDS011;60679;48.888;15.544;2023-03-19T12:21:09;5.32;;;2.85;;
72635;SDS011;60679;48.888;15.544;2023-03-19T12:26:38;6.03;;;3.00;;
72635;SDS011;60679;48.888;15.544;2023-03-19T12:29:19;5.72;;;3.63;;
72635;SDS011;60679;48.888;15.544;2023-03-19T12:34:33;5.38;;;2.75;;
72635;SDS011;60679;48.888;15.544;2023-03-19T12:37:09;7.53;;;3.53;;
72635;SDS011;60679;48.888;15.544;2023-03-19T12:39:37;7.63;;;3.20;;
72635;SDS011;60679;48.888;15.544;2023-03-19T12:42:08;5.53;;;3.15;;
72635;SDS011;60679;48.888;15.544;2023-03-19T12:44:39;6.85;;;3.67;;
72635;SDS011;60679;48.888;15.544;2023-03-19T12:47:12;8.35;;;3.08;;
72635;SDS011;60679;48.888;15.544;2023-03-19T12:50:16;7.17;;;3.27;;
72635;SDS011;60679;48.888;15.544;2023-03-19T12:52:38;5.18;;;2.95;;
72635;SDS011;60679;48.888;15.544;2023-03-19T12:57:41;7.30;;;3.75;;
72635;SDS011;60679;48.888;15.544;2023-03-19T13:06:33;6.18;;;2.90;;
72635;SDS011;60679;48.888;15.544;2023-03-19T13:08:47;7.18;;;3.33;;
72635;SDS011;60679;48.888;15.544;2023-03-19T13:11:37;4.68;;;2.55;;
72635;SDS011;60679;48.888;15.544;2023-03-19T13:14:33;7.28;;;2.97;;
72635;SDS011;60679;48.888;15.544;2023-03-19T13:17:19;7.03;;;3.20;;
72635;SDS011;60679;48.888;15.544;2023-03-19T13:19:54;5.75;;;2.85;;
72635;SDS011;60679;48.888;15.544;2023-03-19T13:22:22;6.18;;;3.03;;
72635;SDS011;60679;48.888;15.544;2023-03-19T13:24:51;5.53;;;2.67;;
72635;SDS011;60679;48.888;15.544;2023-03-19T13:27:21;5.60;;;2.92;;
72635;SDS011;60679;48.888;15.544;2023-03-19T13:30:01;5.93;;;2.40;;
72635;SDS011;60679;48.888;15.544;2023-03-19T13:32:49;5.75;;;2.35;;
72635;SDS011;60679;48.888;15.544;2023-03-19T13:37:47;12.20;;;3.95;;
72635;SDS011;60679;48.888;15.544;2023-03-19T13:51:21;5.63;;;2.90;;
72635;SDS011;60679;48.888;15.544;2023-03-19T13:57:01;6.63;;;3.43;;
72635;SDS011;60679;48.888;15.544;2023-03-19T13:59:31;7.00;;;2.70;;
72635;SDS011;60679;48.888;15.544;2023-03-19T14:01:59;8.10;;;2.35;;
72635;SDS011;60679;48.888;15.544;2023-03-19T14:09:44;8.23;;;3.33;;
72635;SDS011;60679;48.888;15.544;2023-03-19T14:17:23;4.68;;;2.13;;
72635;SDS011;60679;48.888;15.544;2023-03-19T14:19:51;9.18;;;2.67;;
72635;SDS011;60679;48.888;15.544;2023-03-19T14:22:19;5.77;;;2.47;;
72635;SDS011;60679;48.888;15.544;2023-03-19T14:24:54;5.38;;;2.10;;
72635;SDS011;60679;48.888;15.544;2023-03-19T14:27:47;5.47;;;2.28;;
72635;SDS011;60679;48.888;15.544;2023-03-19T14:30:32;6.50;;;2.60;;
72635;SDS011;60679;48.888;15.544;2023-03-19T14:33:02;6.90;;;2.50;;
72635;SDS011;60679;48.888;15.544;2023-03-19T14:35:34;5.07;;;2.40;;
72635;SDS011;60679;48.888;15.544;2023-03-19T14:38:09;6.47;;;2.58;;
72635;SDS011;60679;48.888;15.544;2023-03-19T14:40:43;6.60;;;2.40;;
72635;SDS011;60679;48.888;15.544;2023-03-19T14:46:27;6.40;;;3.03;;
72635;SDS011;60679;48.888;15.544;2023-03-19T14:52:05;7.53;;;2.75;;
72635;SDS011;60679;48.888;15.544;2023-03-19T14:54:43;7.47;;;3.17;;
72635;SDS011;60679;48.888;15.544;2023-03-19T14:57:18;7.85;;;3.10;;
72635;SDS011;60679;48.888;15.544;2023-03-19T14:59:47;9.05;;;2.70;;
72635;SDS011;60679;48.888;15.544;2023-03-19T15:02:19;8.63;;;3.00;;
72635;SDS011;60679;48.888;15.544;2023-03-19T15:04:54;6.40;;;2.85;;
72635;SDS011;60679;48.888;15.544;2023-03-19T15:07:23;5.28;;;2.08;;
72635;SDS011;60679;48.888;15.544;2023-03-19T15:09:54;6.28;;;3.03;;
72635;SDS011;60679;48.888;15.544;2023-03-19T15:13:03;5.88;;;2.58;;
72635;SDS011;60679;48.888;15.544;2023-03-19T15:15:13;6.13;;;2.73;;
72635;SDS011;60679;48.888;15.544;2023-03-19T15:17:46;5.35;;;2.20;;
72635;SDS011;60679;48.888;15.544;2023-03-19T15:20:19;6.28;;;2.47;;
72635;SDS011;60679;48.888;15.544;2023-03-19T15:22:53;6.38;;;2.38;;
72635;SDS011;60679;48.888;15.544;2023-03-19T15:25:23;4.80;;;2.05;;
72635;SDS011;60679;48.888;15.544;2023-03-19T15:28:11;4.87;;;2.00;;
72635;SDS011;60679;48.888;15.544;2023-03-19T15:30:36;4.20;;;1.80;;
72635;SDS011;60679;48.888;15.544;2023-03-19T15:33:02;5.93;;;2.43;;
72635;SDS011;60679;48.888;15.544;2023-03-19T15:35:31;5.03;;;2.17;;
72635;SDS011;60679;48.888;15.544;2023-03-19T15:38:01;5.72;;;2.33;;
72635;SDS011;60679;48.888;15.544;2023-03-19T15:40:30;5.10;;;2.20;;
72635;SDS011;60679;48.888;15.544;2023-03-19T15:42:58;4.47;;;1.57;;
72635;SDS011;60679;48.888;15.544;2023-03-19T15:45:26;5.55;;;2.78;;
72635;SDS011;60679;48.888;15.544;2023-03-19T15:47:56;5.40;;;2.25;;
72635;SDS011;60679;48.888;15.544;2023-03-19T15:50:27;4.88;;;1.88;;
72635;SDS011;60679;48.888;15.544;2023-03-19T15:52:56;7.53;;;2.40;;
72635;SDS011;60679;48.888;15.544;2023-03-19T15:55:26;4.60;;;1.70;;
72635;SDS011;60679;48.888;15.544;2023-03-19T15:57:52;4.90;;;2.28;;
72635;SDS011;60679;48.888;15.544;2023-03-19T16:00:21;8.10;;;2.30;;
72635;SDS011;60679;48.888;15.544;2023-03-19T16:02:49;5.90;;;2.45;;
72635;SDS011;60679;48.888;15.544;2023-03-19T16:05:23;6.63;;;2.27;;
72635;SDS011;60679;48.888;15.544;2023-03-19T16:07:54;5.85;;;3.08;;
72635;SDS011;60679;48.888;15.544;2023-03-19T16:12:53;7.10;;;2.17;;
72635;SDS011;60679;48.888;15.544;2023-03-19T16:15:20;4.60;;;1.60;;
72635;SDS011;60679;48.888;15.544;2023-03-19T16:17:45;15.87;;;3.27;;
72635;SDS011;60679;48.888;15.544;2023-03-19T16:20:13;4.40;;;2.08;;
72635;SDS011;60679;48.888;15.544;2023-03-19T16:22:40;7.55;;;2.20;;
72635;SDS011;60679;48.888;15.544;2023-03-19T16:25:16;6.13;;;2.15;;
72635;SDS011;60679;48.888;15.544;2023-03-19T16:27:43;6.13;;;2.83;;